Time;durP1;ratioP1;P1;durP2;ratioP2;P2;SDS_P1;SDS_P2;PMS_P1;PMS_P2;Temp;Humidity;BMP_temperature;BMP_pressure;BME280_temperature;BME280_humidity;BME280_pressure;Samples;Min_cycle;Max_cycle;Signal;HPM_P1;HPM_P2
2023/04/20 00:00:56;;;;;;;4.00;3.70;;;;;;;7.30;78.26;100944.41;5047139;28;20227;-83
2023/04/20 00:03:32;;;;;;;4.53;4.13;;;;;;;7.28;78.61;100934.91;5047450;28;20260;-83
2023/04/20 00:06:00;;;;;;;4.13;3.80;;;;;;;7.28;79.43;100930.56;5047963;28;20222;-84
2023/04/20 00:08:29;;;;;;;3.60;3.30;;;;;;;7.19;78.69;100914.94;5048333;28;20211;-87
2023/04/20 00:11:00;;;;;;;3.90;3.60;;;;;;;7.14;79.31;100920.13;5048914;28;20236;-84
2023/04/20 00:13:38;;;;;;;4.37;3.97;;;;;;;7.10;80.81;100905.41;5047545;28;20679;-83
2023/04/20 00:16:05;;;;;;;4.53;4.13;;;;;;;7.01;81.02;100863.84;5047750;28;20247;-86
2023/04/20 00:18:35;;;;;;;4.60;4.20;;;;;;;7.05;80.83;100850.03;5046225;28;20217;-85
2023/04/20 00:21:08;;;;;;;3.90;3.60;;;;;;;7.12;80.49;100861.31;5031560;28;20222;-85
2023/04/20 00:23:39;;;;;;;4.40;4.00;;;;;;;7.14;80.63;100869.97;5048339;28;20204;-85
2023/04/20 00:26:11;;;;;;;4.00;3.57;;;;;;;7.13;79.94;100878.59;5047301;28;20204;-84
2023/04/20 00:28:42;;;;;;;5.40;4.90;;;;;;;7.05;80.04;100894.16;5048368;28;20201;-84
2023/04/20 00:31:14;;;;;;;4.67;3.67;;;;;;;7.04;79.93;100897.63;5046986;28;20256;-84
2023/04/20 00:33:47;;;;;;;4.77;4.30;;;;;;;6.92;81.41;100880.28;5046595;28;20703;-84
2023/04/20 00:36:16;;;;;;;4.17;3.73;;;;;;;6.90;81.43;100862.97;5046663;28;20220;-85
2023/04/20 00:38:49;;;;;;;4.50;4.10;;;;;;;6.88;82.36;100859.53;5045528;28;20213;-84
2023/04/20 00:41:18;;;;;;;4.40;4.00;;;;;;;6.94;83.76;100839.63;5046806;28;20258;-86
2023/04/20 00:43:53;;;;;;;4.63;3.83;;;;;;;6.98;83.96;100824.94;5047693;28;20237;-86
2023/04/20 00:46:22;;;;;;;4.37;3.97;;;;;;;6.94;83.64;100825.78;5047296;28;20210;-85
2023/04/20 00:48:52;;;;;;;4.13;3.77;;;;;;;6.94;83.64;100805.88;5045200;28;20262;-85
2023/04/20 00:51:25;;;;;;;4.73;4.07;;;;;;;6.98;83.50;100804.19;5030830;28;20338;-84
2023/04/20 00:53:54;;;;;;;4.03;3.57;;;;;;;6.93;84.15;100800.69;5047840;28;20212;-85
2023/04/20 00:56:29;;;;;;;4.43;3.97;;;;;;;6.95;84.48;100809.34;5046999;28;20216;-84
2023/04/20 00:58:57;;;;;;;4.17;3.77;;;;;;;7.00;84.23;100809.34;5046238;28;20234;-84
2023/04/20 01:01:30;;;;;;;4.37;3.97;;;;;;;7.02;83.51;100820.63;5047218;28;20225;-85
2023/04/20 01:03:59;;;;;;;3.90;3.60;;;;;;;7.00;84.80;100818.03;5046179;28;20273;-85
2023/04/20 01:06:29;;;;;;;6.00;4.10;;;;;;;6.95;84.68;100801.56;5046288;28;20204;-86
2023/04/20 01:09:00;;;;;;;4.90;3.80;;;;;;;6.97;83.80;100813.66;5046031;28;20216;-83
2023/04/20 01:11:33;;;;;;;6.37;4.30;;;;;;;6.91;84.29;100792.91;5044693;28;20233;-84
2023/04/20 01:14:09;;;;;;;5.47;4.20;;;;;;;6.92;84.23;100802.44;5044650;28;20238;-85
2023/04/20 01:16:36;;;;;;;5.07;4.57;;;;;;;6.94;84.42;100802.44;5044316;28;20258;-85
2023/04/20 01:19:05;;;;;;;4.77;4.07;;;;;;;6.95;84.34;100799.81;5043928;28;20216;-85
2023/04/20 01:21:40;;;;;;;6.53;5.00;;;;;;;6.81;85.37;100795.47;5025705;28;20226;-85
2023/04/20 01:24:10;;;;;;;5.37;4.50;;;;;;;6.84;84.28;100792.88;5025184;28;20255;-85
2023/04/20 01:26:42;;;;;;;5.03;4.50;;;;;;;6.87;84.54;100801.53;5025305;28;20210;-85
2023/04/20 01:29:12;;;;;;;4.57;4.17;;;;;;;6.86;85.02;100796.38;5024056;28;20209;-84
2023/04/20 01:31:43;;;;;;;5.50;5.00;;;;;;;6.89;84.97;100794.63;5023003;28;20255;-85
2023/04/20 01:34:16;;;;;;;5.10;4.40;;;;;;;6.95;85.24;100794.63;5023951;28;20200;-82
2023/04/20 01:36:48;;;;;;;4.93;4.53;;;;;;;6.96;84.44;100796.38;5024173;28;20209;-85
2023/04/20 01:39:19;;;;;;;4.73;4.33;;;;;;;6.94;83.95;100815.41;5023346;28;20206;-85
2023/04/20 01:41:47;;;;;;;5.27;4.77;;;;;;;6.86;83.94;100809.34;5024716;28;20226;-84
2023/04/20 01:44:19;;;;;;;6.23;4.73;;;;;;;6.89;84.06;100807.59;5023685;28;20218;-85
2023/04/20 01:46:52;;;;;;;5.43;4.93;;;;;;;6.90;85.21;100795.50;5023506;28;20635;-85
2023/04/20 01:49:23;;;;;;;5.20;4.30;;;;;;;6.91;84.42;100792.91;5023149;28;20208;-85
2023/04/20 01:51:58;;;;;;;7.17;4.63;;;;;;;6.90;83.95;100814.53;5031332;28;20288;-85
2023/04/20 01:54:26;;;;;;;4.40;4.10;;;;;;;6.84;83.61;100826.59;5023622;28;20208;-83
2023/04/20 01:56:58;;;;;;;5.13;4.63;;;;;;;6.85;83.98;100820.56;5024425;28;20210;-85
2023/04/20 01:59:26;;;;;;;5.27;4.73;;;;;;;6.82;84.25;100813.66;5022883;28;20214;-83
2023/04/20 02:01:59;;;;;;;6.73;4.87;;;;;;;6.80;85.08;100805.00;5023294;28;20230;-84
2023/04/20 02:04:31;;;;;;;5.70;5.10;;;;;;;6.80;85.38;100801.53;5023406;28;20210;-84
2023/04/20 02:07:03;;;;;;;5.17;4.70;;;;;;;6.83;84.39;100810.19;5023771;28;20266;-84
2023/04/20 02:09:33;;;;;;;6.37;4.13;;;;;;;6.83;84.15;100820.56;5022824;28;20843;-84
2023/04/20 02:12:06;;;;;;;5.70;5.20;;;;;;;6.80;84.74;100817.09;5020772;28;20715;-85
2023/04/20 02:14:35;;;;;;;5.33;4.83;;;;;;;6.81;84.62;100798.94;5021280;28;20218;-83
2023/04/20 02:17:09;;;;;;;5.67;5.07;;;;;;;6.84;83.48;100801.56;5022082;28;20234;-84
2023/04/20 02:19:38;;;;;;;7.07;4.97;;;;;;;6.82;84.38;100818.84;5021205;28;20660;-85
2023/04/20 02:22:09;;;;;;;6.17;5.13;;;;;;;6.83;84.66;100817.97;5021769;28;20226;-85
2023/04/20 02:24:46;;;;;;;5.73;5.00;;;;;;;6.79;84.32;100813.63;5021000;28;20236;-84
2023/04/20 02:27:12;;;;;;;5.30;4.67;;;;;;;6.77;84.62;100804.97;5021734;28;20217;-83
2023/04/20 02:29:44;;;;;;;5.47;4.97;;;;;;;6.75;84.97;100802.38;5021044;28;20940;-84
2023/04/20 02:32:14;;;;;;;8.13;5.27;;;;;;;6.73;85.37;100798.91;5021061;28;20288;-85
2023/04/20 02:34:49;;;;;;;7.07;5.33;;;;;;;6.70;86.19;100779.88;5014484;28;20196;-85
2023/04/20 02:37:16;;;;;;;8.23;5.50;;;;;;;6.72;85.72;100760.88;5013231;28;20206;-82
2023/04/20 02:39:48;;;;;;;6.13;5.27;;;;;;;6.79;85.13;100766.06;5012001;28;20199;-84
2023/04/20 02:42:25;;;;;;;5.13;4.40;;;;;;;6.82;85.61;100773.84;5011856;28;20250;-85
2023/04/20 02:44:51;;;;;;;6.90;5.53;;;;;;;6.80;84.99;100775.56;5012394;28;20203;-84
2023/04/20 02:47:23;;;;;;;5.63;5.13;;;;;;;6.72;87.13;100767.81;5014107;28;20299;-83
2023/04/20 02:49:55;;;;;;;6.47;5.33;;;;;;;6.74;86.81;100755.69;5014546;28;20207;-83
2023/04/20 02:52:25;;;;;;;7.83;5.00;;;;;;;6.78;86.05;100765.22;5015795;28;20323;-85
2023/04/20 02:55:00;;;;;;;9.57;5.40;;;;;;;6.81;86.85;100767.81;5023316;28;20203;-86
2023/04/20 02:57:28;;;;;;;7.17;5.30;;;;;;;6.81;86.67;100759.16;5024074;28;20231;-84
2023/04/20 03:00:01;;;;;;;6.47;5.77;;;;;;;6.85;85.72;100761.75;5022481;28;20214;-85
2023/04/20 03:02:30;;;;;;;6.30;5.80;;;;;;;6.87;86.44;100774.72;5023023;28;20252;-85
2023/04/20 03:05:00;;;;;;;6.50;5.70;;;;;;;6.86;86.35;100775.63;5023102;28;20210;-85
2023/04/20 03:07:34;;;;;;;6.83;5.97;;;;;;;6.87;85.92;100773.00;5022308;28;20209;-84
2023/04/20 03:10:05;;;;;;;6.43;5.40;;;;;;;6.88;86.08;100773.88;5021116;28;20252;-85
2023/04/20 03:12:35;;;;;;;6.63;5.67;;;;;;;6.89;86.38;100767.81;5021338;28;20316;-85
2023/04/20 03:15:10;;;;;;;8.77;6.37;;;;;;;6.89;85.71;100776.47;5021588;28;20261;-83
2023/04/20 03:17:38;;;;;;;8.10;5.80;;;;;;;6.92;85.88;100773.88;5021827;28;20268;-84
2023/04/20 03:20:08;;;;;;;7.20;6.30;;;;;;;6.94;86.24;100776.50;5021211;28;20233;-86
2023/04/20 03:22:42;;;;;;;7.33;6.30;;;;;;;6.96;85.44;100782.53;5020711;28;20638;-84
2023/04/20 03:25:11;;;;;;;6.47;5.93;;;;;;;6.98;86.54;100780.81;5020220;28;20218;-84
2023/04/20 03:27:45;;;;;;;7.07;6.37;;;;;;;6.95;86.64;100775.59;5021033;28;20215;-86
2023/04/20 03:30:15;;;;;;;6.10;5.57;;;;;;;6.99;86.25;100779.06;5019370;28;20241;-83
2023/04/20 03:32:44;;;;;;;9.10;6.87;;;;;;;6.92;87.06;100763.50;5020402;28;20212;-84
2023/04/20 03:35:17;;;;;;;6.10;5.47;;;;;;;6.96;87.29;100762.63;5020207;28;20292;-84
2023/04/20 03:37:49;;;;;;;12.00;6.50;;;;;;;6.95;86.47;100765.22;5021301;28;20263;-84
2023/04/20 03:40:21;;;;;;;6.60;6.00;;;;;;;6.98;86.02;100770.44;5020731;28;20250;-84
2023/04/20 03:42:49;;;;;;;7.07;6.37;;;;;;;6.97;85.82;100782.53;5023967;28;20233;-84
2023/04/20 03:45:23;;;;;;;7.20;6.60;;;;;;;6.98;85.60;100791.19;5021113;28;20578;-82
2023/04/20 03:47:53;;;;;;;10.37;6.57;;;;;;;6.96;85.78;100793.78;5021213;28;20210;-83
2023/04/20 03:50:24;;;;;;;7.57;6.70;;;;;;;6.96;86.65;100785.13;5032438;28;20232;-85
2023/04/20 03:52:54;;;;;;;7.90;7.03;;;;;;;6.88;87.14;100774.75;5041933;28;20239;-85
2023/04/20 03:55:27;;;;;;;7.63;6.93;;;;;;;6.93;86.52;100774.75;5040619;28;20205;-86
2023/04/20 03:57:59;;;;;;;7.60;6.77;;;;;;;6.86;87.32;100780.81;5041184;28;20616;-84
2023/04/20 04:00:31;;;;;;;7.67;6.97;;;;;;;6.92;86.46;100780.81;5041766;28;20237;-86
2023/04/20 04:03:03;;;;;;;7.10;6.30;;;;;;;6.88;87.12;100782.53;5050429;28;20195;-84
2023/04/20 04:05:34;;;;;;;7.70;7.03;;;;;;;6.85;86.97;100792.88;5057415;28;20190;-87
2023/04/20 04:08:03;;;;;;;7.97;6.13;;;;;;;6.88;86.96;100787.72;5042676;28;20220;-87
2023/04/20 04:10:35;;;;;;;7.60;6.80;;;;;;;6.93;86.75;100787.72;5037409;28;20200;-86
2023/04/20 04:13:06;;;;;;;6.97;6.33;;;;;;;6.91;87.60;100779.06;5038419;28;20187;-85
2023/04/20 04:15:38;;;;;;;9.33;6.53;;;;;;;6.93;86.74;100780.78;5030518;28;20256;-84
2023/04/20 04:18:08;;;;;;;8.10;7.47;;;;;;;6.88;87.38;100769.56;5022508;28;20241;-84
2023/04/20 04:20:39;;;;;;;7.13;6.40;;;;;;;6.92;87.23;100773.03;5021267;28;20285;-85
2023/04/20 04:23:12;;;;;;;7.87;7.13;;;;;;;6.98;86.61;100775.63;5022405;28;20634;-84
2023/04/20 04:25:44;;;;;;;7.80;6.93;;;;;;;6.98;86.75;100780.81;5020006;28;20273;-85
2023/04/20 04:28:13;;;;;;;7.70;7.10;;;;;;;7.01;86.42;100792.91;5020404;28;20210;-84
2023/04/20 04:30:46;;;;;;;7.13;6.53;;;;;;;7.05;85.81;100799.84;5023104;28;20244;-85
2023/04/20 04:33:19;;;;;;;8.00;7.27;;;;;;;7.04;86.73;100798.13;5022879;28;20735;-86
2023/04/20 04:35:47;;;;;;;8.90;7.63;;;;;;;7.00;87.29;100793.78;5026434;28;20191;-86
2023/04/20 04:38:18;;;;;;;8.03;7.33;;;;;;;6.94;88.42;100773.91;5028315;28;20213;-86
2023/04/20 04:40:51;;;;;;;7.83;7.03;;;;;;;6.93;88.39;100764.34;5043659;28;20232;-83
2023/04/20 04:43:21;;;;;;;8.73;7.90;;;;;;;6.90;89.07;100754.00;5048764;28;20276;-84
2023/04/20 04:45:54;;;;;;;8.83;8.03;;;;;;;6.94;88.87;100742.75;5050386;28;20205;-84
2023/04/20 04:48:25;;;;;;;8.23;7.53;;;;;;;6.97;87.68;100753.13;5050497;28;20209;-84
2023/04/20 04:50:57;;;;;;;9.13;8.30;;;;;;;6.98;88.05;100757.47;5049618;28;20269;-84
2023/04/20 04:53:23;;;;;;;9.03;7.87;;;;;;;6.94;88.46;100741.00;5059128;22;20233;-78
2023/04/20 04:55:50;;;;;;;10.57;8.43;;;;;;;6.94;88.36;100743.59;5034090;28;20258;-78
2023/04/20 04:58:16;;;;;;;9.00;8.03;;;;;;;6.95;88.02;100744.47;5035023;28;20212;-78
2023/04/20 05:00:44;;;;;;;8.10;7.27;;;;;;;6.91;89.60;100737.53;5034202;28;20202;-76
2023/04/20 05:03:10;;;;;;;8.80;7.90;;;;;;;6.96;89.62;100738.44;5033061;28;20225;-77
2023/04/20 05:05:37;;;;;;;8.27;7.40;;;;;;;6.96;88.84;100741.88;5034034;28;20201;-78
2023/04/20 05:08:03;;;;;;;10.43;8.43;;;;;;;7.01;88.52;100741.88;5032501;28;20867;-78
2023/04/20 05:10:29;;;;;;;8.57;7.63;;;;;;;7.07;88.43;100757.44;5034080;28;20210;-78
2023/04/20 05:12:57;;;;;;;8.83;7.93;;;;;;;7.08;88.34;100781.69;5036990;28;20288;-79
2023/04/20 05:15:23;;;;;;;9.23;7.67;;;;;;;7.09;87.21;100786.88;5036434;28;20214;-78
2023/04/20 05:17:53;;;;;;;8.40;7.33;;;;;;;7.12;87.16;100796.41;5037216;28;20205;-78
2023/04/20 05:20:19;;;;;;;9.17;7.63;;;;;;;7.04;87.49;100791.19;5036118;28;20255;-77
2023/04/20 05:22:46;;;;;;;8.00;7.27;;;;;;;7.02;88.30;100789.47;5033927;28;20229;-78
2023/04/20 05:25:12;;;;;;;8.17;7.37;;;;;;;7.00;88.54;100775.59;5034306;28;20204;-77
2023/04/20 05:27:39;;;;;;;9.23;8.30;;;;;;;7.06;88.35;100778.22;5033997;28;20730;-77
2023/04/20 05:30:07;;;;;;;8.63;7.87;;;;;;;7.06;88.70;100792.06;5034206;28;20669;-77
2023/04/20 05:32:33;;;;;;;8.40;7.60;;;;;;;7.06;88.27;100786.88;5033992;28;20233;-77
2023/04/20 05:35:01;;;;;;;8.97;8.07;;;;;;;7.10;88.41;100783.41;5034530;28;20202;-77
2023/04/20 05:37:27;;;;;;;8.90;7.97;;;;;;;7.16;87.30;100798.13;5033638;28;20211;-77
2023/04/20 05:39:53;;;;;;;8.57;7.77;;;;;;;7.14;88.55;100813.72;5033613;28;20286;-77
2023/04/20 05:42:19;;;;;;;8.50;7.70;;;;;;;7.14;88.06;100805.06;5033982;28;20247;-78
2023/04/20 05:44:46;;;;;;;8.50;7.60;;;;;;;7.16;87.98;100804.19;5034034;28;20260;-76
2023/04/20 05:47:12;;;;;;;8.93;8.07;;;;;;;7.20;88.04;100814.59;5032628;28;20210;-77
2023/04/20 05:49:39;;;;;;;8.70;8.00;;;;;;;7.17;88.12;100818.03;5033569;28;20259;-77
2023/04/20 05:52:07;;;;;;;8.57;7.77;;;;;;;7.19;88.49;100808.50;5031826;28;20229;-77
2023/04/20 05:54:33;;;;;;;9.90;7.77;;;;;;;7.27;88.47;100816.31;5031282;28;20210;-78
2023/04/20 05:56:59;;;;;;;9.07;8.07;;;;;;;7.25;88.78;100831.88;5033037;28;20202;-78
2023/04/20 05:59:26;;;;;;;10.43;8.33;;;;;;;7.22;88.73;100821.50;5033561;28;20232;-77
2023/04/20 06:01:53;;;;;;;8.00;7.20;;;;;;;7.23;88.74;100822.38;5022907;28;20217;-79
2023/04/20 06:04:19;;;;;;;9.30;8.40;;;;;;;7.27;88.13;100827.56;5028600;28;20202;-76
2023/04/20 06:06:45;;;;;;;8.57;7.87;;;;;;;7.35;87.72;100844.03;5033092;28;20683;-76
2023/04/20 06:09:13;;;;;;;8.83;8.03;;;;;;;7.39;87.44;100857.84;5032915;28;20206;-77
2023/04/20 06:11:40;;;;;;;9.90;7.67;;;;;;;7.40;87.25;100859.59;5031249;28;20228;-78
2023/04/20 06:14:06;;;;;;;7.23;6.63;;;;;;;7.38;87.28;100866.53;5033363;28;20683;-78
2023/04/20 06:16:32;;;;;;;9.17;7.20;;;;;;;7.39;86.11;100889.03;5035312;28;20282;-78
2023/04/20 06:18:59;;;;;;;7.13;6.43;;;;;;;7.42;85.14;100904.63;5034292;28;20252;-77
2023/04/20 06:21:25;;;;;;;7.17;6.57;;;;;;;7.35;86.28;100903.75;5034424;28;20205;-77
2023/04/20 06:23:52;;;;;;;6.63;6.03;;;;;;;7.40;86.95;100900.31;5033079;28;20218;-78
2023/04/20 06:26:19;;;;;;;7.43;6.17;;;;;;;7.47;85.38;100913.31;5033551;28;20204;-79
2023/04/20 06:28:47;;;;;;;7.10;6.50;;;;;;;7.47;85.84;100910.69;5033881;28;20264;-79
2023/04/20 06:31:13;;;;;;;6.60;5.87;;;;;;;7.50;86.27;100907.25;5034245;28;20198;-78
2023/04/20 06:33:39;;;;;;;7.27;6.67;;;;;;;7.61;85.10;100915.91;5033960;28;20230;-79
2023/04/20 06:36:06;;;;;;;6.43;5.93;;;;;;;7.73;84.85;100923.72;5033851;28;20364;-79
2023/04/20 06:38:33;;;;;;;7.10;6.50;;;;;;;7.82;84.57;100930.63;5033777;28;20256;-78
2023/04/20 06:41:01;;;;;;;6.07;5.57;;;;;;;7.86;84.90;100947.97;5034310;28;20754;-77
2023/04/20 06:43:29;;;;;;;7.50;6.87;;;;;;;7.86;84.00;100954.91;5035544;28;20229;-78
2023/04/20 06:45:55;;;;;;;6.03;5.53;;;;;;;7.66;83.41;100983.47;5034007;28;20788;-77
2023/04/20 06:48:22;;;;;;;6.53;5.93;;;;;;;7.77;83.54;100981.75;5032974;28;20263;-78
2023/04/20 06:50:48;;;;;;;6.33;5.83;;;;;;;7.78;82.18;101004.25;5032091;28;20205;-78
2023/04/20 06:53:15;;;;;;;5.63;5.23;;;;;;;7.82;81.14;101019.00;5031871;28;20222;-78
2023/04/20 06:55:41;;;;;;;6.07;5.50;;;;;;;7.82;81.78;101046.72;5031349;28;20896;-76
2023/04/20 06:58:07;;;;;;;5.60;5.13;;;;;;;7.80;81.99;101041.53;5031575;28;20202;-77
2023/04/20 07:00:35;;;;;;;6.90;6.30;;;;;;;7.81;81.16;101040.66;5031620;28;20695;-78
2023/04/20 07:03:02;;;;;;;10.03;7.57;;;;;;;7.87;82.12;101048.47;5033168;28;20233;-78
2023/04/20 07:05:28;;;;;;;5.77;5.37;;;;;;;7.91;81.51;101039.81;5032849;28;20238;-77
2023/04/20 07:07:54;;;;;;;6.60;6.10;;;;;;;7.95;81.80;101031.16;5032931;28;20208;-77
2023/04/20 07:10:21;;;;;;;7.03;6.43;;;;;;;7.99;80.97;101050.22;5033659;28;20231;-78
2023/04/20 07:12:47;;;;;;;5.63;5.23;;;;;;;8.10;79.55;101074.50;5033662;28;20243;-78
2023/04/20 07:15:14;;;;;;;6.20;5.77;;;;;;;8.13;79.70;101090.13;5033543;28;20202;-78
2023/04/20 07:17:41;;;;;;;6.40;6.00;;;;;;;8.15;77.83;101124.78;5033556;28;20208;-77
2023/04/20 07:20:09;;;;;;;6.33;5.83;;;;;;;8.11;77.22;101148.19;5032946;28;20240;-78
2023/04/20 07:22:36;;;;;;;6.20;5.70;;;;;;;8.11;77.43;101172.44;5031863;28;20218;-78
2023/04/20 07:25:03;;;;;;;7.03;6.43;;;;;;;8.17;77.72;101182.00;5027295;28;20228;-78
2023/04/20 07:27:30;;;;;;;6.80;6.30;;;;;;;8.22;77.62;101172.47;5027209;28;20203;-78
2023/04/20 07:29:58;;;;;;;7.07;6.57;;;;;;;8.24;78.38;101177.69;5033243;28;20704;-78
2023/04/20 07:32:24;;;;;;;7.80;7.20;;;;;;;8.30;77.33;101177.69;5031393;28;20312;-78
2023/04/20 07:34:52;;;;;;;6.60;6.10;;;;;;;8.42;76.91;101197.69;5032716;28;20203;-78
2023/04/20 07:37:19;;;;;;;6.70;6.20;;;;;;;8.46;76.14;101202.94;5033839;28;20213;-77
2023/04/20 07:39:45;;;;;;;6.67;6.17;;;;;;;8.44;75.81;101219.38;5032307;28;20209;-78
2023/04/20 07:42:11;;;;;;;7.27;6.73;;;;;;;8.46;76.50;101231.56;5032726;28;20224;-79
2023/04/20 07:44:38;;;;;;;7.07;6.47;;;;;;;8.44;75.92;101241.06;5033084;28;20204;-77
2023/04/20 07:47:04;;;;;;;7.03;6.47;;;;;;;8.41;75.80;101240.16;5033712;28;20194;-77
2023/04/20 07:49:31;;;;;;;7.00;6.50;;;;;;;8.44;75.44;101251.47;5017861;28;20204;-77
2023/04/20 07:51:58;;;;;;;7.93;7.33;;;;;;;8.44;76.61;101248.00;5012796;28;20229;-77
2023/04/20 07:54:25;;;;;;;8.13;7.53;;;;;;;8.44;77.39;101219.38;5013233;28;20209;-78
2023/04/20 07:56:52;;;;;;;8.70;8.10;;;;;;;8.43;76.38;101225.47;5013213;28;20203;-77
2023/04/20 07:59:18;;;;;;;8.43;7.83;;;;;;;8.44;75.74;101240.19;5012857;28;20560;-77
2023/04/20 08:01:45;;;;;;;8.27;7.63;;;;;;;8.44;75.38;101254.06;5012750;28;20212;-77
2023/04/20 08:04:11;;;;;;;8.43;7.83;;;;;;;8.48;74.70;101257.53;5012766;28;20243;-77
2023/04/20 08:06:38;;;;;;;7.97;7.37;;;;;;;8.57;74.48;101268.00;5013429;28;20213;-77
2023/04/20 08:09:05;;;;;;;8.17;7.57;;;;;;;8.61;75.62;101269.72;5033821;28;20213;-79
2023/04/20 08:11:32;;;;;;;8.90;8.30;;;;;;;8.61;75.31;101261.94;5037666;28;20319;-78
2023/04/20 08:13:59;;;;;;;8.53;7.93;;;;;;;8.60;75.52;101262.78;5018259;28;20708;-78
2023/04/20 08:16:25;;;;;;;9.87;9.17;;;;;;;8.55;74.32;101269.72;5030113;28;20205;-78
2023/04/20 08:18:51;;;;;;;9.87;9.07;;;;;;;8.58;74.28;101279.25;5036950;28;20206;-79
2023/04/20 08:21:21;;;;;;;8.97;8.37;;;;;;;8.59;74.89;101284.47;5037271;28;20202;-79
2023/04/20 08:23:47;;;;;;;8.80;8.20;;;;;;;8.58;74.46;101279.25;5036827;28;20305;-79
2023/04/20 08:26:16;;;;;;;9.83;9.00;;;;;;;8.55;74.57;101288.81;5037502;28;20206;-79
2023/04/20 08:28:43;;;;;;;10.00;9.30;;;;;;;8.56;74.37;101281.84;5034801;28;20456;-78
2023/04/20 08:31:09;;;;;;;10.17;9.40;;;;;;;8.62;74.53;101284.50;5035322;28;20205;-77
2023/04/20 08:33:36;;;;;;;9.77;8.97;;;;;;;8.68;74.36;101300.13;5025795;28;20222;-79
2023/04/20 08:36:02;;;;;;;9.57;8.87;;;;;;;8.77;74.75;101293.22;5026735;28;20206;-79
2023/04/20 08:38:30;;;;;;;9.73;9.03;;;;;;;8.82;75.15;101278.44;5036316;28;20201;-78
2023/04/20 08:40:56;;;;;;;9.47;8.70;;;;;;;8.79;74.96;101284.53;5038251;28;20260;-80
2023/04/20 08:43:24;;;;;;;9.03;8.43;;;;;;;8.78;74.69;101277.59;5034135;28;20279;-78
2023/04/20 08:45:52;;;;;;;9.73;9.03;;;;;;;8.82;73.92;101286.25;5037000;28;20213;-80
2023/04/20 08:48:20;;;;;;;10.17;9.47;;;;;;;8.80;73.74;101296.69;5026159;28;20206;-79
2023/04/20 08:50:47;;;;;;;9.83;9.03;;;;;;;8.82;73.12;101315.78;5032568;28;20209;-79
2023/04/20 08:53:14;;;;;;;10.13;9.33;;;;;;;8.85;72.65;101331.41;5037683;28;20241;-78
2023/04/20 08:55:40;;;;;;;10.70;9.90;;;;;;;8.92;71.50;101353.13;5038224;28;20586;-78
2023/04/20 08:58:06;;;;;;;11.97;10.97;;;;;;;8.90;72.62;101366.13;5036698;28;20213;-79
2023/04/20 09:00:34;;;;;;;11.13;10.13;;;;;;;9.01;73.32;101367.91;5037820;28;20210;-79
2023/04/20 09:03:00;;;;;;;9.87;9.17;;;;;;;9.09;72.79;101350.53;5037381;28;20229;-79
2023/04/20 09:05:27;;;;;;;10.00;9.20;;;;;;;9.22;71.94;101357.53;5037437;28;20677;-79
2023/04/20 09:07:55;;;;;;;10.17;9.43;;;;;;;9.34;71.37;101361.88;5036593;28;20220;-78
2023/04/20 09:10:23;;;;;;;9.67;8.97;;;;;;;9.41;70.25;101388.81;5036458;28;20217;-78
2023/04/20 09:12:50;;;;;;;10.00;9.20;;;;;;;9.50;69.92;101414.88;5037191;28;20604;-79
2023/04/20 09:15:27;;;;;;;9.73;9.03;;;;;;;9.49;70.57;101427.06;5037404;28;20237;-78
2023/04/20 09:17:55;;;;;;;8.90;8.30;;;;;;;9.62;68.78;101432.28;5038549;28;20200;-79
2023/04/20 09:20:31;;;;;;;10.30;9.60;;;;;;;9.73;68.76;101454.00;5037302;28;20213;-78
2023/04/20 09:22:58;;;;;;;9.77;8.87;;;;;;;9.82;67.40;101477.47;5036711;28;20228;-80
2023/04/20 09:25:26;;;;;;;9.93;9.13;;;;;;;9.84;67.21;101503.56;5036946;28;20202;-79
2023/04/20 09:27:57;;;;;;;9.60;8.90;;;;;;;9.97;65.66;101538.34;5037683;28;20236;-79
2023/04/20 09:30:23;;;;;;;9.83;9.07;;;;;;;9.99;64.74;101580.94;5037598;28;20202;-79
2023/04/20 09:33:01;;;;;;;9.27;8.63;;;;;;;9.90;65.15;101615.72;5037432;28;20724;-79
2023/04/20 09:35:28;;;;;;;8.60;8.00;;;;;;;9.94;65.56;101604.41;5037224;28;20301;-79
2023/04/20 09:37:54;;;;;;;8.07;7.47;;;;;;;9.94;64.64;101607.03;5036362;28;20264;-79
2023/04/20 09:40:22;;;;;;;7.10;6.63;;;;;;;9.94;64.12;101638.31;5036258;28;20208;-80
2023/04/20 09:42:50;;;;;;;7.47;6.87;;;;;;;9.89;63.81;101646.16;5036431;28;20249;-79
2023/04/20 09:45:17;;;;;;;8.00;7.40;;;;;;;9.83;64.54;101666.09;5036168;28;20683;-80
2023/04/20 09:47:44;;;;;;;8.17;7.33;;;;;;;9.88;65.49;101649.59;5036455;28;20206;-79
2023/04/20 09:50:12;;;;;;;7.97;7.47;;;;;;;9.94;65.03;101615.72;5036045;28;20210;-79
2023/04/20 09:52:39;;;;;;;7.67;7.17;;;;;;;9.90;64.66;101636.56;5035824;28;20229;-80
2023/04/20 09:55:07;;;;;;;8.03;7.43;;;;;;;10.03;64.05;101637.47;5036469;28;20206;-80
2023/04/20 09:57:34;;;;;;;8.03;7.43;;;;;;;10.09;62.98;101653.16;5036756;28;20689;-79
2023/04/20 10:00:05;;;;;;;8.67;8.07;;;;;;;10.01;64.56;101660.06;5036321;28;20206;-79
2023/04/20 10:02:32;;;;;;;9.57;8.77;;;;;;;9.93;64.04;101663.53;5037344;28;20290;-79
2023/04/20 10:05:00;;;;;;;9.47;8.77;;;;;;;9.82;65.88;101654.81;5038139;28;20222;-78
2023/04/20 10:07:29;;;;;;;8.90;8.30;;;;;;;9.93;64.30;101631.38;5029628;28;20194;-79
2023/04/20 10:10:06;;;;;;;7.53;7.03;;;;;;;10.10;65.19;101628.78;5036054;28;20202;-79
2023/04/20 10:12:35;;;;;;;8.73;8.23;;;;;;;10.30;66.28;101600.16;5037522;28;20221;-79
2023/04/20 10:15:02;;;;;;;8.57;8.07;;;;;;;10.44;63.40;101600.16;5036949;28;20209;-79
2023/04/20 10:17:30;;;;;;;7.50;7.00;;;;;;;10.42;62.57;101634.09;5035088;28;20241;-78
2023/04/20 10:19:57;;;;;;;6.50;6.00;;;;;;;10.34;62.36;101651.47;5032460;28;20293;-78
2023/04/20 10:22:32;;;;;;;8.17;7.67;;;;;;;10.20;63.34;101674.91;5033960;28;20238;-79
2023/04/20 10:24:58;;;;;;;8.33;7.53;;;;;;;10.18;63.26;101655.78;5035996;28;20681;-79
2023/04/20 10:27:25;;;;;;;8.83;8.23;;;;;;;10.18;63.09;101661.00;5036323;28;20202;-79
2023/04/20 10:29:51;;;;;;;7.63;7.13;;;;;;;10.19;61.86;101667.06;5035686;28;20209;-79
2023/04/20 10:32:23;;;;;;;7.67;6.97;;;;;;;10.17;62.89;101694.91;5035213;28;20227;-79
2023/04/20 10:35:00;;;;;;;7.27;6.77;;;;;;;10.25;62.72;101662.75;5035978;28;20231;-79
2023/04/20 10:37:28;;;;;;;7.70;7.10;;;;;;;10.33;62.71;101666.28;5035647;28;20205;-79
2023/04/20 10:39:55;;;;;;;6.80;6.40;;;;;;;10.39;60.63;101675.00;5035017;28;20683;-79
2023/04/20 10:42:21;;;;;;;7.53;7.00;;;;;;;10.42;60.46;101708.94;5035097;28;20236;-80
2023/04/20 10:44:48;;;;;;;6.67;6.17;;;;;;;10.38;60.57;101730.66;5036075;28;20205;-79
2023/04/20 10:47:14;;;;;;;6.47;5.97;;;;;;;10.38;61.62;101728.91;5035744;28;20217;-79
2023/04/20 10:49:41;;;;;;;6.07;5.67;;;;;;;10.31;63.13;101707.16;5035162;28;20213;-80
2023/04/20 10:52:07;;;;;;;6.43;6.03;;;;;;;10.27;62.48;101702.78;5036337;28;20262;-80
2023/04/20 10:54:38;;;;;;;5.73;5.33;;;;;;;10.31;61.33;101683.69;5036153;28;20222;-80
2023/04/20 10:57:05;;;;;;;5.90;5.50;;;;;;;10.35;62.34;101681.94;5065914;22;20233;-84
2023/04/20 10:59:33;;;;;;;6.83;6.33;;;;;;;10.32;60.33;101700.19;5057816;28;20216;-84
2023/04/20 11:02:00;;;;;;;6.17;5.77;;;;;;;10.30;59.61;101705.41;5063827;28;20201;-83
2023/04/20 11:04:31;;;;;;;6.93;6.23;;;;;;;10.18;59.88;101736.66;5062829;28;20216;-84
2023/04/20 11:07:13;;;;;;;7.33;6.73;;;;;;;10.16;60.29;101742.75;5047661;28;20663;-81
2023/04/20 11:09:53;;;;;;;6.93;6.50;;;;;;;10.09;60.44;101747.09;5039940;28;20249;-84
2023/04/20 11:12:20;;;;;;;6.67;6.27;;;;;;;10.08;60.21;101740.09;5047120;28;20201;-84
2023/04/20 11:14:54;;;;;;;6.93;6.37;;;;;;;10.09;61.35;101747.94;5037150;28;20349;-81
2023/04/20 11:17:20;;;;;;;6.67;6.17;;;;;;;10.30;61.76;101721.06;5024729;28;20223;-83
2023/04/20 11:19:47;;;;;;;7.40;6.90;;;;;;;10.45;60.44;101703.72;5022806;28;20202;-82
2023/04/20 11:22:21;;;;;;;6.30;5.90;;;;;;;10.57;60.12;101710.72;5023732;28;20217;-85
2023/04/20 11:24:50;;;;;;;6.77;6.30;;;;;;;10.57;58.66;101718.53;5021818;28;20198;-81
2023/04/20 11:27:20;;;;;;;6.83;6.30;;;;;;;10.50;60.51;101738.53;5021701;28;20244;-81
2023/04/20 11:29:57;;;;;;;7.00;6.50;;;;;;;10.67;59.78;101710.72;5022070;28;20212;-84
2023/04/20 11:32:24;;;;;;;6.63;6.13;;;;;;;10.60;61.12;101726.38;5022331;28;20277;-83
2023/04/20 11:35:34;;;;;;;6.60;6.20;;;;;;;10.67;60.98;101705.50;5039039;28;20270;-86
2023/04/20 11:38:01;;;;;;;7.07;6.47;;;;;;;10.84;60.07;101689.84;5033884;28;20214;-81
2023/04/20 11:40:29;;;;;;;6.90;6.43;;;;;;;11.00;59.81;101709.00;5036640;28;20264;-81